sensor_id;sensor_type;location;lat;lon;timestamp;temperature;humidity
78028;DHT22;74605;45.864;11.474;2024-02-23T00:00:11;6.00;79.00
78028;DHT22;74605;45.864;11.474;2024-02-23T00:02:38;5.80;79.00
78028;DHT22;74605;45.864;11.474;2024-02-23T00:05:04;5.70;79.10
78028;DHT22;74605;45.864;11.474;2024-02-23T00:07:31;5.90;79.20
78028;DHT22;74605;45.864;11.474;2024-02-23T00:09:57;5.70;79.00
78028;DHT22;74605;45.864;11.474;2024-02-23T00:12:23;5.90;78.90
78028;DHT22;74605;45.864;11.474;2024-02-23T00:14:49;5.90;79.20
78028;DHT22;74605;45.864;11.474;2024-02-23T00:17:16;5.80;79.10
78028;DHT22;74605;45.864;11.474;2024-02-23T00:19:44;5.90;78.70
78028;DHT22;74605;45.864;11.474;2024-02-23T00:22:10;5.60;79.10
78028;DHT22;74605;45.864;11.474;2024-02-23T00:24:36;5.90;79.20
78028;DHT22;74605;45.864;11.474;2024-02-23T00:27:02;5.50;78.90
78028;DHT22;74605;45.864;11.474;2024-02-23T00:29:29;5.50;79.40
78028;DHT22;74605;45.864;11.474;2024-02-23T00:31:55;5.70;79.50
78028;DHT22;74605;45.864;11.474;2024-02-23T00:34:21;5.70;79.20
78028;DHT22;74605;45.864;11.474;2024-02-23T00:36:48;5.70;79.50
78028;DHT22;74605;45.864;11.474;2024-02-23T00:39:14;5.90;79.40
78028;DHT22;74605;45.864;11.474;2024-02-23T00:41:40;6.00;79.40
78028;DHT22;74605;45.864;11.474;2024-02-23T00:44:06;5.90;79.20
78028;DHT22;74605;45.864;11.474;2024-02-23T00:46:32;5.70;79.30
78028;DHT22;74605;45.864;11.474;2024-02-23T00:48:59;5.60;79.00
78028;DHT22;74605;45.864;11.474;2024-02-23T00:51:25;5.60;79.30
78028;DHT22;74605;45.864;11.474;2024-02-23T00:53:52;5.50;79.30
78028;DHT22;74605;45.864;11.474;2024-02-23T00:56:18;5.80;79.20
78028;DHT22;74605;45.864;11.474;2024-02-23T00:58:44;5.80;79.40
78028;DHT22;74605;45.864;11.474;2024-02-23T01:01:10;5.80;79.30
78028;DHT22;74605;45.864;11.474;2024-02-23T01:03:36;5.90;79.50
78028;DHT22;74605;45.864;11.474;2024-02-23T01:06:02;5.90;79.10
78028;DHT22;74605;45.864;11.474;2024-02-23T01:08:29;5.80;79.40
78028;DHT22;74605;45.864;11.474;2024-02-23T01:10:54;5.70;79.30
78028;DHT22;74605;45.864;11.474;2024-02-23T01:13:20;5.90;79.50
78028;DHT22;74605;45.864;11.474;2024-02-23T01:15:46;5.90;79.20
78028;DHT22;74605;45.864;11.474;2024-02-23T01:18:13;5.90;79.10
78028;DHT22;74605;45.864;11.474;2024-02-23T01:20:40;5.70;79.20
78028;DHT22;74605;45.864;11.474;2024-02-23T01:23:06;5.70;79.50
78028;DHT22;74605;45.864;11.474;2024-02-23T01:25:32;5.90;79.30
78028;DHT22;74605;45.864;11.474;2024-02-23T01:28:00;5.70;79.20
78028;DHT22;74605;45.864;11.474;2024-02-23T01:30:26;5.70;79.60
78028;DHT22;74605;45.864;11.474;2024-02-23T01:32:52;5.80;79.50
78028;DHT22;74605;45.864;11.474;2024-02-23T01:35:18;5.80;79.30
78028;DHT22;74605;45.864;11.474;2024-02-23T01:37:44;5.80;79.60
78028;DHT22;74605;45.864;11.474;2024-02-23T01:40:10;6.00;79.30
78028;DHT22;74605;45.864;11.474;2024-02-23T01:42:36;5.80;79.30
78028;DHT22;74605;45.864;11.474;2024-02-23T01:45:02;5.70;79.30
78028;DHT22;74605;45.864;11.474;2024-02-23T01:47:29;6.10;79.50
78028;DHT22;74605;45.864;11.474;2024-02-23T01:49:57;6.00;79.20
78028;DHT22;74605;45.864;11.474;2024-02-23T01:52:24;6.00;79.50
78028;DHT22;74605;45.864;11.474;2024-02-23T01:54:51;5.90;79.20
78028;DHT22;74605;45.864;11.474;2024-02-23T01:57:17;5.80;79.60
78028;DHT22;74605;45.864;11.474;2024-02-23T01:59:43;6.00;79.70
78028;DHT22;74605;45.864;11.474;2024-02-23T02:02:09;5.90;79.50
78028;DHT22;74605;45.864;11.474;2024-02-23T02:04:35;5.80;79.90
78028;DHT22;74605;45.864;11.474;2024-02-23T02:07:02;5.80;80.10
78028;DHT22;74605;45.864;11.474;2024-02-23T02:09:28;5.70;80.20
78028;DHT22;74605;45.864;11.474;2024-02-23T02:11:54;5.70;80.20
78028;DHT22;74605;45.864;11.474;2024-02-23T02:14:19;5.70;80.40
78028;DHT22;74605;45.864;11.474;2024-02-23T02:16:46;5.80;80.50
78028;DHT22;74605;45.864;11.474;2024-02-23T02:19:12;5.90;80.30
78028;DHT22;74605;45.864;11.474;2024-02-23T02:21:39;5.90;80.40
78028;DHT22;74605;45.864;11.474;2024-02-23T02:24:06;5.90;80.60
78028;DHT22;74605;45.864;11.474;2024-02-23T02:26:32;5.80;80.50
78028;DHT22;74605;45.864;11.474;2024-02-23T02:28:58;5.70;80.60
78028;DHT22;74605;45.864;11.474;2024-02-23T02:31:25;5.70;80.80
78028;DHT22;74605;45.864;11.474;2024-02-23T02:33:50;5.50;81.10
78028;DHT22;74605;45.864;11.474;2024-02-23T02:36:16;5.70;81.00
78028;DHT22;74605;45.864;11.474;2024-02-23T02:38:42;5.70;81.00
78028;DHT22;74605;45.864;11.474;2024-02-23T02:41:09;5.50;81.00
78028;DHT22;74605;45.864;11.474;2024-02-23T02:43:35;5.70;80.80
78028;DHT22;74605;45.864;11.474;2024-02-23T02:46:01;5.70;81.20
78028;DHT22;74605;45.864;11.474;2024-02-23T02:48:28;5.60;81.10
78028;DHT22;74605;45.864;11.474;2024-02-23T02:50:54;5.70;80.90
78028;DHT22;74605;45.864;11.474;2024-02-23T02:53:20;5.70;80.90
78028;DHT22;74605;45.864;11.474;2024-02-23T02:55:46;5.50;81.10
78028;DHT22;74605;45.864;11.474;2024-02-23T02:58:12;5.60;81.30
78028;DHT22;74605;45.864;11.474;2024-02-23T03:00:38;5.70;81.30
78028;DHT22;74605;45.864;11.474;2024-02-23T03:03:05;5.70;81.30
78028;DHT22;74605;45.864;11.474;2024-02-23T03:05:31;5.60;81.00
78028;DHT22;74605;45.864;11.474;2024-02-23T03:07:58;5.60;81.30
78028;DHT22;74605;45.864;11.474;2024-02-23T03:10:24;5.40;81.50
78028;DHT22;74605;45.864;11.474;2024-02-23T03:12:50;5.70;81.30
78028;DHT22;74605;45.864;11.474;2024-02-23T03:15:16;5.60;81.50
78028;DHT22;74605;45.864;11.474;2024-02-23T03:17:42;5.30;81.60
78028;DHT22;74605;45.864;11.474;2024-02-23T03:20:08;5.30;81.80
78028;DHT22;74605;45.864;11.474;2024-02-23T03:22:35;5.60;81.60
78028;DHT22;74605;45.864;11.474;2024-02-23T03:25:02;5.60;81.30
78028;DHT22;74605;45.864;11.474;2024-02-23T03:27:36;5.60;81.40
78028;DHT22;74605;45.864;11.474;2024-02-23T03:30:03;5.60;81.30
78028;DHT22;74605;45.864;11.474;2024-02-23T03:32:31;5.50;81.10
78028;DHT22;74605;45.864;11.474;2024-02-23T03:35:03;5.60;81.20
78028;DHT22;74605;45.864;11.474;2024-02-23T03:37:30;5.50;81.30
78028;DHT22;74605;45.864;11.474;2024-02-23T03:39:56;5.50;81.60
78028;DHT22;74605;45.864;11.474;2024-02-23T03:42:22;5.60;81.40
78028;DHT22;74605;45.864;11.474;2024-02-23T03:44:48;5.70;81.50
78028;DHT22;74605;45.864;11.474;2024-02-23T03:47:14;5.70;81.30
78028;DHT22;74605;45.864;11.474;2024-02-23T03:49:41;5.70;81.40
78028;DHT22;74605;45.864;11.474;2024-02-23T03:52:07;5.60;81.60
78028;DHT22;74605;45.864;11.474;2024-02-23T03:54:33;5.60;81.70
78028;DHT22;74605;45.864;11.474;2024-02-23T03:56:59;5.50;81.80
78028;DHT22;74605;45.864;11.474;2024-02-23T03:59:25;5.70;81.50
78028;DHT22;74605;45.864;11.474;2024-02-23T04:01:51;5.70;81.50
78028;DHT22;74605;45.864;11.474;2024-02-23T04:04:17;5.70;81.70
78028;DHT22;74605;45.864;11.474;2024-02-23T04:06:43;5.70;81.70
78028;DHT22;74605;45.864;11.474;2024-02-23T04:09:09;5.70;81.70
78028;DHT22;74605;45.864;11.474;2024-02-23T04:11:36;5.90;81.50
78028;DHT22;74605;45.864;11.474;2024-02-23T04:14:02;5.70;81.60
78028;DHT22;74605;45.864;11.474;2024-02-23T04:16:31;5.70;81.40
78028;DHT22;74605;45.864;11.474;2024-02-23T04:18:57;5.80;81.60
78028;DHT22;74605;45.864;11.474;2024-02-23T04:21:25;5.80;81.80
78028;DHT22;74605;45.864;11.474;2024-02-23T04:23:51;5.80;81.70
78028;DHT22;74605;45.864;11.474;2024-02-23T04:26:18;5.90;81.90
78028;DHT22;74605;45.864;11.474;2024-02-23T04:28:44;5.60;81.90
78028;DHT22;74605;45.864;11.474;2024-02-23T04:31:10;5.90;81.70
78028;DHT22;74605;45.864;11.474;2024-02-23T04:33:37;5.90;81.50
78028;DHT22;74605;45.864;11.474;2024-02-23T04:36:04;6.00;81.70
78028;DHT22;74605;45.864;11.474;2024-02-23T04:38:31;5.90;81.60
78028;DHT22;74605;45.864;11.474;2024-02-23T04:40:58;5.70;81.80
78028;DHT22;74605;45.864;11.474;2024-02-23T04:43:25;5.70;81.70
78028;DHT22;74605;45.864;11.474;2024-02-23T04:45:51;5.70;82.20
78028;DHT22;74605;45.864;11.474;2024-02-23T04:48:17;5.60;82.10
78028;DHT22;74605;45.864;11.474;2024-02-23T04:50:43;5.60;82.40
78028;DHT22;74605;45.864;11.474;2024-02-23T04:53:09;5.40;82.10
78028;DHT22;74605;45.864;11.474;2024-02-23T04:55:36;5.50;82.00
78028;DHT22;74605;45.864;11.474;2024-02-23T04:58:02;5.40;81.90
78028;DHT22;74605;45.864;11.474;2024-02-23T05:00:29;5.30;82.10
78028;DHT22;74605;45.864;11.474;2024-02-23T05:03:01;5.20;81.90
78028;DHT22;74605;45.864;11.474;2024-02-23T05:05:30;5.50;81.80
78028;DHT22;74605;45.864;11.474;2024-02-23T05:07:56;5.50;81.70
78028;DHT22;74605;45.864;11.474;2024-02-23T05:10:22;5.40;82.00
78028;DHT22;74605;45.864;11.474;2024-02-23T05:12:49;5.50;82.20
78028;DHT22;74605;45.864;11.474;2024-02-23T05:15:15;5.50;82.10
78028;DHT22;74605;45.864;11.474;2024-02-23T05:17:41;5.40;82.00
78028;DHT22;74605;45.864;11.474;2024-02-23T05:20:08;5.50;82.40
78028;DHT22;74605;45.864;11.474;2024-02-23T05:22:39;5.60;82.30
78028;DHT22;74605;45.864;11.474;2024-02-23T05:25:06;5.50;82.20
78028;DHT22;74605;45.864;11.474;2024-02-23T05:27:32;5.40;82.90
78028;DHT22;74605;45.864;11.474;2024-02-23T05:29:58;5.40;82.50
78028;DHT22;74605;45.864;11.474;2024-02-23T05:32:25;5.30;82.50
78028;DHT22;74605;45.864;11.474;2024-02-23T05:34:51;5.50;82.50
78028;DHT22;74605;45.864;11.474;2024-02-23T05:37:18;5.60;82.40
78028;DHT22;74605;45.864;11.474;2024-02-23T05:39:45;5.70;82.30
78028;DHT22;74605;45.864;11.474;2024-02-23T05:42:14;5.70;82.40
78028;DHT22;74605;45.864;11.474;2024-02-23T05:44:43;5.60;82.60
78028;DHT22;74605;45.864;11.474;2024-02-23T05:47:10;5.70;82.80
78028;DHT22;74605;45.864;11.474;2024-02-23T05:49:37;5.80;82.80
78028;DHT22;74605;45.864;11.474;2024-02-23T05:52:03;5.70;82.60
78028;DHT22;74605;45.864;11.474;2024-02-23T05:54:29;5.70;82.50
78028;DHT22;74605;45.864;11.474;2024-02-23T05:56:56;5.80;82.50
78028;DHT22;74605;45.864;11.474;2024-02-23T05:59:22;5.90;82.30
78028;DHT22;74605;45.864;11.474;2024-02-23T06:01:48;5.80;82.50
78028;DHT22;74605;45.864;11.474;2024-02-23T06:04:13;5.90;82.90
78028;DHT22;74605;45.864;11.474;2024-02-23T06:06:42;6.00;83.10
78028;DHT22;74605;45.864;11.474;2024-02-23T06:09:11;5.80;83.00
78028;DHT22;74605;45.864;11.474;2024-02-23T06:11:37;5.90;83.20
78028;DHT22;74605;45.864;11.474;2024-02-23T06:14:03;5.70;83.10
78028;DHT22;74605;45.864;11.474;2024-02-23T06:16:29;5.80;83.20
78028;DHT22;74605;45.864;11.474;2024-02-23T06:18:55;5.70;83.30
78028;DHT22;74605;45.864;11.474;2024-02-23T06:21:21;5.60;83.20
78028;DHT22;74605;45.864;11.474;2024-02-23T06:23:46;5.80;83.80
78028;DHT22;74605;45.864;11.474;2024-02-23T06:26:12;5.70;83.40
78028;DHT22;74605;45.864;11.474;2024-02-23T06:28:39;5.70;83.80
78028;DHT22;74605;45.864;11.474;2024-02-23T06:31:08;5.80;83.80
78028;DHT22;74605;45.864;11.474;2024-02-23T06:33:34;5.60;83.70
78028;DHT22;74605;45.864;11.474;2024-02-23T06:36:00;5.60;83.80
78028;DHT22;74605;45.864;11.474;2024-02-23T06:38:27;5.90;83.70
78028;DHT22;74605;45.864;11.474;2024-02-23T06:40:53;5.80;83.60
78028;DHT22;74605;45.864;11.474;2024-02-23T06:43:19;5.70;83.60
78028;DHT22;74605;45.864;11.474;2024-02-23T06:45:45;5.80;83.70
78028;DHT22;74605;45.864;11.474;2024-02-23T06:48:11;5.60;83.60
78028;DHT22;74605;45.864;11.474;2024-02-23T06:50:37;5.80;83.70
78028;DHT22;74605;45.864;11.474;2024-02-23T06:53:03;6.00;83.50
78028;DHT22;74605;45.864;11.474;2024-02-23T06:55:29;6.00;83.90
78028;DHT22;74605;45.864;11.474;2024-02-23T06:57:55;5.80;84.10
78028;DHT22;74605;45.864;11.474;2024-02-23T07:00:21;6.00;83.40
78028;DHT22;74605;45.864;11.474;2024-02-23T07:13:09;5.70;83.30
78028;DHT22;74605;45.864;11.474;2024-02-23T07:15:35;5.80;83.50
78028;DHT22;74605;45.864;11.474;2024-02-23T07:18:04;5.70;82.90
78028;DHT22;74605;45.864;11.474;2024-02-23T07:20:30;5.80;83.60
78028;DHT22;74605;45.864;11.474;2024-02-23T07:22:56;5.40;83.10
78028;DHT22;74605;45.864;11.474;2024-02-23T07:25:22;5.70;83.50
78028;DHT22;74605;45.864;11.474;2024-02-23T07:27:49;5.70;82.80
78028;DHT22;74605;45.864;11.474;2024-02-23T07:30:15;5.60;82.80
78028;DHT22;74605;45.864;11.474;2024-02-23T07:32:43;5.80;82.60
78028;DHT22;74605;45.864;11.474;2024-02-23T07:35:09;5.60;82.30
78028;DHT22;74605;45.864;11.474;2024-02-23T07:37:36;5.70;82.50
78028;DHT22;74605;45.864;11.474;2024-02-23T07:40:03;5.50;82.40
78028;DHT22;74605;45.864;11.474;2024-02-23T07:42:30;5.40;82.30
78028;DHT22;74605;45.864;11.474;2024-02-23T07:44:56;5.60;82.50
78028;DHT22;74605;45.864;11.474;2024-02-23T07:47:22;5.50;82.80
78028;DHT22;74605;45.864;11.474;2024-02-23T07:49:48;5.30;82.60
78028;DHT22;74605;45.864;11.474;2024-02-23T07:52:14;5.50;82.50
78028;DHT22;74605;45.864;11.474;2024-02-23T07:54:40;5.50;82.80
78028;DHT22;74605;45.864;11.474;2024-02-23T07:57:06;5.10;82.20
78028;DHT22;74605;45.864;11.474;2024-02-23T07:59:33;5.50;82.40
78028;DHT22;74605;45.864;11.474;2024-02-23T08:01:59;5.50;82.50
78028;DHT22;74605;45.864;11.474;2024-02-23T08:04:25;5.40;82.30
78028;DHT22;74605;45.864;11.474;2024-02-23T08:06:51;5.40;82.10
78028;DHT22;74605;45.864;11.474;2024-02-23T08:09:17;5.40;82.20
78028;DHT22;74605;45.864;11.474;2024-02-23T08:11:43;5.40;82.00
78028;DHT22;74605;45.864;11.474;2024-02-23T08:14:09;5.40;82.30
78028;DHT22;74605;45.864;11.474;2024-02-23T08:16:35;5.40;82.90
78028;DHT22;74605;45.864;11.474;2024-02-23T08:19:01;5.30;82.20
78028;DHT22;74605;45.864;11.474;2024-02-23T08:21:27;5.40;82.30
78028;DHT22;74605;45.864;11.474;2024-02-23T08:23:53;5.20;81.90
78028;DHT22;74605;45.864;11.474;2024-02-23T08:26:19;5.50;81.90
78028;DHT22;74605;45.864;11.474;2024-02-23T08:28:45;5.60;82.20
78028;DHT22;74605;45.864;11.474;2024-02-23T08:31:11;5.50;82.00
78028;DHT22;74605;45.864;11.474;2024-02-23T08:33:37;5.40;82.50
78028;DHT22;74605;45.864;11.474;2024-02-23T08:36:04;5.50;82.70
78028;DHT22;74605;45.864;11.474;2024-02-23T08:38:32;5.20;82.10
78028;DHT22;74605;45.864;11.474;2024-02-23T08:40:58;5.30;82.20
78028;DHT22;74605;45.864;11.474;2024-02-23T08:43:27;5.40;82.10
78028;DHT22;74605;45.864;11.474;2024-02-23T08:45:52;5.50;81.80
78028;DHT22;74605;45.864;11.474;2024-02-23T08:48:18;5.70;82.00
78028;DHT22;74605;45.864;11.474;2024-02-23T08:50:44;5.60;81.90
78028;DHT22;74605;45.864;11.474;2024-02-23T08:53:10;5.50;82.00
78028;DHT22;74605;45.864;11.474;2024-02-23T08:55:36;5.60;82.10
78028;DHT22;74605;45.864;11.474;2024-02-23T08:58:02;5.60;82.00
78028;DHT22;74605;45.864;11.474;2024-02-23T09:00:28;5.80;82.20
78028;DHT22;74605;45.864;11.474;2024-02-23T09:02:54;5.90;81.60
78028;DHT22;74605;45.864;11.474;2024-02-23T09:05:20;5.80;82.10
78028;DHT22;74605;45.864;11.474;2024-02-23T09:07:46;5.90;82.20
78028;DHT22;74605;45.864;11.474;2024-02-23T09:10:12;5.90;82.10
78028;DHT22;74605;45.864;11.474;2024-02-23T09:12:38;5.80;81.80
78028;DHT22;74605;45.864;11.474;2024-02-23T09:15:05;5.70;82.50
78028;DHT22;74605;45.864;11.474;2024-02-23T09:17:32;5.80;82.30
78028;DHT22;74605;45.864;11.474;2024-02-23T09:19:58;5.60;82.50
78028;DHT22;74605;45.864;11.474;2024-02-23T09:22:23;6.20;82.90
78028;DHT22;74605;45.864;11.474;2024-02-23T09:24:49;6.20;82.00
78028;DHT22;74605;45.864;11.474;2024-02-23T09:27:16;6.10;81.50
78028;DHT22;74605;45.864;11.474;2024-02-23T09:29:42;6.00;81.90
78028;DHT22;74605;45.864;11.474;2024-02-23T09:32:08;6.10;82.30
78028;DHT22;74605;45.864;11.474;2024-02-23T09:34:34;6.10;82.50
78028;DHT22;74605;45.864;11.474;2024-02-23T09:37:00;6.00;82.20
78028;DHT22;74605;45.864;11.474;2024-02-23T09:39:26;6.10;82.80
78028;DHT22;74605;45.864;11.474;2024-02-23T09:41:56;6.00;82.50
78028;DHT22;74605;45.864;11.474;2024-02-23T09:44:31;6.30;83.00
78028;DHT22;74605;45.864;11.474;2024-02-23T09:47:03;6.20;82.90
78028;DHT22;74605;45.864;11.474;2024-02-23T09:49:39;6.00;82.60
78028;DHT22;74605;45.864;11.474;2024-02-23T09:52:08;6.30;83.00
78028;DHT22;74605;45.864;11.474;2024-02-23T09:54:38;6.20;82.80
78028;DHT22;74605;45.864;11.474;2024-02-23T09:57:07;6.30;82.90
78028;DHT22;74605;45.864;11.474;2024-02-23T09:59:36;6.30;82.60
78028;DHT22;74605;45.864;11.474;2024-02-23T10:02:09;6.20;82.80
78028;DHT22;74605;45.864;11.474;2024-02-23T10:04:39;6.50;82.60
78028;DHT22;74605;45.864;11.474;2024-02-23T10:07:07;6.50;82.20
78028;DHT22;74605;45.864;11.474;2024-02-23T10:09:33;6.40;82.50
78028;DHT22;74605;45.864;11.474;2024-02-23T10:11:59;6.60;82.50
78028;DHT22;74605;45.864;11.474;2024-02-23T10:14:25;6.60;82.20
78028;DHT22;74605;45.864;11.474;2024-02-23T10:16:51;6.60;82.50
78028;DHT22;74605;45.864;11.474;2024-02-23T10:19:20;6.60;81.90
78028;DHT22;74605;45.864;11.474;2024-02-23T10:21:46;6.70;82.30
78028;DHT22;74605;45.864;11.474;2024-02-23T10:24:17;6.60;81.30
78028;DHT22;74605;45.864;11.474;2024-02-23T10:26:43;6.60;82.10
78028;DHT22;74605;45.864;11.474;2024-02-23T10:29:10;6.70;82.20
78028;DHT22;74605;45.864;11.474;2024-02-23T10:31:36;6.80;81.90
78028;DHT22;74605;45.864;11.474;2024-02-23T10:34:08;6.60;81.90
78028;DHT22;74605;45.864;11.474;2024-02-23T10:36:41;6.70;81.90
78028;DHT22;74605;45.864;11.474;2024-02-23T10:39:17;6.80;82.20
78028;DHT22;74605;45.864;11.474;2024-02-23T10:41:56;6.80;81.90
78028;DHT22;74605;45.864;11.474;2024-02-23T10:44:24;6.90;81.90
78028;DHT22;74605;45.864;11.474;2024-02-23T10:46:52;6.90;82.00
78028;DHT22;74605;45.864;11.474;2024-02-23T10:49:19;7.00;82.00
78028;DHT22;74605;45.864;11.474;2024-02-23T10:51:46;7.00;81.70
78028;DHT22;74605;45.864;11.474;2024-02-23T10:54:14;7.00;82.00
78028;DHT22;74605;45.864;11.474;2024-02-23T10:56:43;7.00;82.00
78028;DHT22;74605;45.864;11.474;2024-02-23T10:59:09;7.20;81.90
78028;DHT22;74605;45.864;11.474;2024-02-23T11:01:36;7.20;82.10
78028;DHT22;74605;45.864;11.474;2024-02-23T11:04:06;7.20;82.10
78028;DHT22;74605;45.864;11.474;2024-02-23T11:06:34;7.30;81.70
78028;DHT22;74605;45.864;11.474;2024-02-23T11:09:07;7.20;81.40
78028;DHT22;74605;45.864;11.474;2024-02-23T11:11:34;6.80;82.10
78028;DHT22;74605;45.864;11.474;2024-02-23T11:14:03;7.00;82.10
78028;DHT22;74605;45.864;11.474;2024-02-23T11:16:32;7.10;82.20
78028;DHT22;74605;45.864;11.474;2024-02-23T11:19:05;7.00;82.90
78028;DHT22;74605;45.864;11.474;2024-02-23T11:21:35;6.70;81.50
78028;DHT22;74605;45.864;11.474;2024-02-23T11:24:04;6.90;81.70
78028;DHT22;74605;45.864;11.474;2024-02-23T11:26:31;6.90;81.60
78028;DHT22;74605;45.864;11.474;2024-02-23T11:29:09;7.00;81.80
78028;DHT22;74605;45.864;11.474;2024-02-23T11:31:35;7.00;81.50
78028;DHT22;74605;45.864;11.474;2024-02-23T11:34:01;6.60;82.00
78028;DHT22;74605;45.864;11.474;2024-02-23T11:36:34;6.80;82.10
78028;DHT22;74605;45.864;11.474;2024-02-23T11:39:01;6.80;81.80
78028;DHT22;74605;45.864;11.474;2024-02-23T11:41:30;7.00;81.50
78028;DHT22;74605;45.864;11.474;2024-02-23T11:43:56;7.10;81.90
78028;DHT22;74605;45.864;11.474;2024-02-23T11:46:24;7.10;82.10
78028;DHT22;74605;45.864;11.474;2024-02-23T11:48:50;7.20;82.20
78028;DHT22;74605;45.864;11.474;2024-02-23T11:51:23;7.10;81.90
78028;DHT22;74605;45.864;11.474;2024-02-23T11:53:52;7.20;81.90
78028;DHT22;74605;45.864;11.474;2024-02-23T11:56:19;7.10;81.70
78028;DHT22;74605;45.864;11.474;2024-02-23T11:58:46;7.40;81.40
78028;DHT22;74605;45.864;11.474;2024-02-23T12:01:12;7.40;81.70
78028;DHT22;74605;45.864;11.474;2024-02-23T12:03:38;7.40;81.30
78028;DHT22;74605;45.864;11.474;2024-02-23T12:06:05;7.40;81.60
78028;DHT22;74605;45.864;11.474;2024-02-23T12:08:32;7.30;81.30
78028;DHT22;74605;45.864;11.474;2024-02-23T12:11:04;7.30;81.50
78028;DHT22;74605;45.864;11.474;2024-02-23T12:13:31;7.30;81.60
78028;DHT22;74605;45.864;11.474;2024-02-23T12:15:57;7.40;81.40
78028;DHT22;74605;45.864;11.474;2024-02-23T12:18:23;7.60;81.00
78028;DHT22;74605;45.864;11.474;2024-02-23T12:20:52;7.60;81.10
78028;DHT22;74605;45.864;11.474;2024-02-23T12:23:18;7.50;81.50
78028;DHT22;74605;45.864;11.474;2024-02-23T12:25:57;7.50;81.30
78028;DHT22;74605;45.864;11.474;2024-02-23T12:28:23;7.60;81.50
78028;DHT22;74605;45.864;11.474;2024-02-23T12:31:02;8.00;81.80
78028;DHT22;74605;45.864;11.474;2024-02-23T12:33:31;8.10;81.50
78028;DHT22;74605;45.864;11.474;2024-02-23T12:35:58;7.80;81.00
78028;DHT22;74605;45.864;11.474;2024-02-23T12:38:25;7.80;81.20
78028;DHT22;74605;45.864;11.474;2024-02-23T12:40:51;7.80;81.20
78028;DHT22;74605;45.864;11.474;2024-02-23T12:43:18;7.50;81.10
78028;DHT22;74605;45.864;11.474;2024-02-23T12:45:47;7.60;81.00
78028;DHT22;74605;45.864;11.474;2024-02-23T12:48:17;7.50;81.00
78028;DHT22;74605;45.864;11.474;2024-02-23T12:50:44;7.40;81.00
78028;DHT22;74605;45.864;11.474;2024-02-23T12:56:11;7.70;81.00
78028;DHT22;74605;45.864;11.474;2024-02-23T12:58:43;7.60;81.10
78028;DHT22;74605;45.864;11.474;2024-02-23T13:01:10;7.90;80.80
78028;DHT22;74605;45.864;11.474;2024-02-23T13:03:37;7.80;81.60
78028;DHT22;74605;45.864;11.474;2024-02-23T13:06:04;7.60;81.10
78028;DHT22;74605;45.864;11.474;2024-02-23T13:08:30;7.60;80.80
78028;DHT22;74605;45.864;11.474;2024-02-23T13:10:57;7.80;80.70
78028;DHT22;74605;45.864;11.474;2024-02-23T13:13:23;7.80;80.90
78028;DHT22;74605;45.864;11.474;2024-02-23T13:15:51;7.80;80.50
78028;DHT22;74605;45.864;11.474;2024-02-23T13:18:17;7.70;80.60
78028;DHT22;74605;45.864;11.474;2024-02-23T13:20:44;7.60;80.70
78028;DHT22;74605;45.864;11.474;2024-02-23T13:23:11;7.70;80.90
78028;DHT22;74605;45.864;11.474;2024-02-23T13:25:39;7.40;80.90
78028;DHT22;74605;45.864;11.474;2024-02-23T13:28:06;7.00;81.30
78028;DHT22;74605;45.864;11.474;2024-02-23T13:30:33;7.10;82.10
78028;DHT22;74605;45.864;11.474;2024-02-23T13:32:59;7.10;81.70
78028;DHT22;74605;45.864;11.474;2024-02-23T13:35:26;7.20;81.90
78028;DHT22;74605;45.864;11.474;2024-02-23T13:37:52;7.20;81.50
78028;DHT22;74605;45.864;11.474;2024-02-23T13:40:18;7.30;81.00
78028;DHT22;74605;45.864;11.474;2024-02-23T13:42:44;7.30;81.50
78028;DHT22;74605;45.864;11.474;2024-02-23T13:45:16;7.00;81.20
78028;DHT22;74605;45.864;11.474;2024-02-23T13:47:43;7.20;81.50
78028;DHT22;74605;45.864;11.474;2024-02-23T13:50:10;7.10;81.40
78028;DHT22;74605;45.864;11.474;2024-02-23T13:52:37;7.10;81.10
78028;DHT22;74605;45.864;11.474;2024-02-23T13:55:03;7.10;81.20
78028;DHT22;74605;45.864;11.474;2024-02-23T13:57:29;7.00;81.90
78028;DHT22;74605;45.864;11.474;2024-02-23T13:59:56;7.00;81.50
78028;DHT22;74605;45.864;11.474;2024-02-23T14:02:25;7.10;81.30
78028;DHT22;74605;45.864;11.474;2024-02-23T14:05:01;7.00;81.10
78028;DHT22;74605;45.864;11.474;2024-02-23T14:07:33;7.10;81.20
78028;DHT22;74605;45.864;11.474;2024-02-23T14:09:59;6.90;81.40
78028;DHT22;74605;45.864;11.474;2024-02-23T14:12:27;6.80;81.60
78028;DHT22;74605;45.864;11.474;2024-02-23T14:14:53;7.00;81.80
78028;DHT22;74605;45.864;11.474;2024-02-23T14:17:19;6.90;81.50
78028;DHT22;74605;45.864;11.474;2024-02-23T14:19:45;7.00;81.40
78028;DHT22;74605;45.864;11.474;2024-02-23T14:22:11;6.90;81.60
78028;DHT22;74605;45.864;11.474;2024-02-23T14:24:37;6.80;81.10
78028;DHT22;74605;45.864;11.474;2024-02-23T14:27:03;6.80;81.30
78028;DHT22;74605;45.864;11.474;2024-02-23T14:29:29;6.80;81.30
78028;DHT22;74605;45.864;11.474;2024-02-23T14:31:55;6.50;81.30
78028;DHT22;74605;45.864;11.474;2024-02-23T14:34:21;6.60;80.80
78028;DHT22;74605;45.864;11.474;2024-02-23T14:36:49;6.60;81.20
78028;DHT22;74605;45.864;11.474;2024-02-23T14:39:15;6.60;80.80
78028;DHT22;74605;45.864;11.474;2024-02-23T14:41:41;6.40;80.80
78028;DHT22;74605;45.864;11.474;2024-02-23T14:44:08;6.40;81.20
78028;DHT22;74605;45.864;11.474;2024-02-23T14:46:34;6.20;81.10
78028;DHT22;74605;45.864;11.474;2024-02-23T14:49:00;6.50;81.00
78028;DHT22;74605;45.864;11.474;2024-02-23T14:51:26;6.50;80.50
78028;DHT22;74605;45.864;11.474;2024-02-23T14:53:51;6.10;81.00
78028;DHT22;74605;45.864;11.474;2024-02-23T14:56:17;6.10;80.90
78028;DHT22;74605;45.864;11.474;2024-02-23T14:58:43;6.20;81.60
78028;DHT22;74605;45.864;11.474;2024-02-23T15:01:09;6.20;81.00
78028;DHT22;74605;45.864;11.474;2024-02-23T15:03:35;6.30;81.10
78028;DHT22;74605;45.864;11.474;2024-02-23T15:06:01;6.60;80.60
78028;DHT22;74605;45.864;11.474;2024-02-23T15:08:28;6.40;80.50
78028;DHT22;74605;45.864;11.474;2024-02-23T15:10:53;6.40;79.70
78028;DHT22;74605;45.864;11.474;2024-02-23T15:13:20;6.30;80.70
78028;DHT22;74605;45.864;11.474;2024-02-23T15:15:46;6.20;80.80
78028;DHT22;74605;45.864;11.474;2024-02-23T15:18:12;6.20;81.40
78028;DHT22;74605;45.864;11.474;2024-02-23T15:20:38;6.70;82.00
78028;DHT22;74605;45.864;11.474;2024-02-23T15:23:04;6.70;80.90
78028;DHT22;74605;45.864;11.474;2024-02-23T15:25:30;6.50;80.20
78028;DHT22;74605;45.864;11.474;2024-02-23T15:27:56;6.50;80.10
78028;DHT22;74605;45.864;11.474;2024-02-23T15:30:24;6.50;80.60
78028;DHT22;74605;45.864;11.474;2024-02-23T15:32:50;6.50;80.80
78028;DHT22;74605;45.864;11.474;2024-02-23T15:35:16;6.80;80.40
78028;DHT22;74605;45.864;11.474;2024-02-23T15:37:43;6.80;80.30
78028;DHT22;74605;45.864;11.474;2024-02-23T15:40:09;7.00;80.40